sensor_id;sensor_type;location;lat;lon;timestamp;P1;durP1;ratioP1;P2;durP2;ratioP2
69386;SDS011;56575;48.942;8.404;2023-02-22T00:01:50;5.83;;;2.50;;
69386;SDS011;56575;48.942;8.404;2023-02-22T00:04:34;5.28;;;2.53;;
69386;SDS011;56575;48.942;8.404;2023-02-22T00:06:59;5.47;;;2.30;;
69386;SDS011;56575;48.942;8.404;2023-02-22T00:09:26;7.50;;;2.53;;
69386;SDS011;56575;48.942;8.404;2023-02-22T00:11:51;6.13;;;2.80;;
69386;SDS011;56575;48.942;8.404;2023-02-22T00:14:16;6.40;;;2.50;;
69386;SDS011;56575;48.942;8.404;2023-02-22T00:16:44;6.10;;;2.35;;
69386;SDS011;56575;48.942;8.404;2023-02-22T00:19:09;5.60;;;2.30;;
69386;SDS011;56575;48.942;8.404;2023-02-22T00:21:34;5.00;;;2.30;;
69386;SDS011;56575;48.942;8.404;2023-02-22T00:24:01;7.32;;;2.50;;
69386;SDS011;56575;48.942;8.404;2023-02-22T00:26:41;5.80;;;2.53;;
69386;SDS011;56575;48.942;8.404;2023-02-22T00:29:06;7.80;;;2.33;;
69386;SDS011;56575;48.942;8.404;2023-02-22T00:31:35;4.18;;;2.28;;
69386;SDS011;56575;48.942;8.404;2023-02-22T00:34:01;7.88;;;2.40;;
69386;SDS011;56575;48.942;8.404;2023-02-22T00:36:26;5.00;;;2.90;;
69386;SDS011;56575;48.942;8.404;2023-02-22T00:38:51;5.50;;;2.50;;
69386;SDS011;56575;48.942;8.404;2023-02-22T00:41:16;4.97;;;2.57;;
69386;SDS011;56575;48.942;8.404;2023-02-22T00:43:41;7.33;;;2.90;;
69386;SDS011;56575;48.942;8.404;2023-02-22T00:46:07;6.67;;;2.40;;
69386;SDS011;56575;48.942;8.404;2023-02-22T00:48:32;4.63;;;2.20;;
69386;SDS011;56575;48.942;8.404;2023-02-22T00:50:57;5.13;;;2.40;;
69386;SDS011;56575;48.942;8.404;2023-02-22T00:53:23;6.00;;;2.67;;
69386;SDS011;56575;48.942;8.404;2023-02-22T00:55:49;5.78;;;2.40;;
69386;SDS011;56575;48.942;8.404;2023-02-22T00:58:14;3.27;;;1.90;;
69386;SDS011;56575;48.942;8.404;2023-02-22T01:00:40;4.67;;;2.30;;
69386;SDS011;56575;48.942;8.404;2023-02-22T01:03:06;4.35;;;2.10;;
69386;SDS011;56575;48.942;8.404;2023-02-22T01:05:32;4.03;;;2.22;;
69386;SDS011;56575;48.942;8.404;2023-02-22T01:07:58;4.87;;;2.30;;
69386;SDS011;56575;48.942;8.404;2023-02-22T01:10:25;5.90;;;2.10;;
69386;SDS011;56575;48.942;8.404;2023-02-22T01:12:51;5.28;;;2.33;;
69386;SDS011;56575;48.942;8.404;2023-02-22T01:15:20;5.47;;;1.97;;
69386;SDS011;56575;48.942;8.404;2023-02-22T01:17:46;7.88;;;2.50;;
69386;SDS011;56575;48.942;8.404;2023-02-22T01:20:11;5.40;;;2.53;;
69386;SDS011;56575;48.942;8.404;2023-02-22T01:22:40;5.17;;;2.17;;
69386;SDS011;56575;48.942;8.404;2023-02-22T01:25:06;5.43;;;2.60;;
69386;SDS011;56575;48.942;8.404;2023-02-22T01:27:32;5.38;;;2.17;;
69386;SDS011;56575;48.942;8.404;2023-02-22T01:29:57;5.33;;;2.37;;
69386;SDS011;56575;48.942;8.404;2023-02-22T01:32:22;4.20;;;1.98;;
69386;SDS011;56575;48.942;8.404;2023-02-22T01:34:48;3.77;;;1.70;;
69386;SDS011;56575;48.942;8.404;2023-02-22T01:37:13;4.33;;;1.90;;
69386;SDS011;56575;48.942;8.404;2023-02-22T01:39:38;4.57;;;2.00;;
69386;SDS011;56575;48.942;8.404;2023-02-22T01:42:03;5.63;;;2.10;;
69386;SDS011;56575;48.942;8.404;2023-02-22T01:44:35;4.60;;;2.33;;
69386;SDS011;56575;48.942;8.404;2023-02-22T01:47:01;5.38;;;1.88;;
69386;SDS011;56575;48.942;8.404;2023-02-22T01:49:44;4.07;;;2.00;;
69386;SDS011;56575;48.942;8.404;2023-02-22T01:52:11;6.28;;;2.10;;
69386;SDS011;56575;48.942;8.404;2023-02-22T01:54:41;5.05;;;2.00;;
69386;SDS011;56575;48.942;8.404;2023-02-22T01:57:12;4.20;;;2.05;;
69386;SDS011;56575;48.942;8.404;2023-02-22T01:59:39;4.75;;;2.17;;
69386;SDS011;56575;48.942;8.404;2023-02-22T02:02:06;4.67;;;2.00;;
69386;SDS011;56575;48.942;8.404;2023-02-22T02:04:31;4.77;;;2.03;;
69386;SDS011;56575;48.942;8.404;2023-02-22T02:06:59;3.83;;;1.95;;
69386;SDS011;56575;48.942;8.404;2023-02-22T02:09:38;4.63;;;1.90;;
69386;SDS011;56575;48.942;8.404;2023-02-22T02:12:04;6.60;;;2.40;;
69386;SDS011;56575;48.942;8.404;2023-02-22T02:14:30;4.75;;;1.98;;
69386;SDS011;56575;48.942;8.404;2023-02-22T02:16:56;6.18;;;2.50;;
69386;SDS011;56575;48.942;8.404;2023-02-22T02:22:13;5.43;;;2.30;;
69386;SDS011;56575;48.942;8.404;2023-02-22T02:27:21;5.00;;;1.90;;
69386;SDS011;56575;48.942;8.404;2023-02-22T02:35:15;3.90;;;1.83;;
69386;SDS011;56575;48.942;8.404;2023-02-22T02:38:06;3.35;;;1.80;;
69386;SDS011;56575;48.942;8.404;2023-02-22T02:40:43;7.70;;;2.20;;
69386;SDS011;56575;48.942;8.404;2023-02-22T02:43:25;3.90;;;1.70;;
69386;SDS011;56575;48.942;8.404;2023-02-22T02:48:27;6.85;;;1.90;;
69386;SDS011;56575;48.942;8.404;2023-02-22T02:50:53;6.97;;;2.35;;
69386;SDS011;56575;48.942;8.404;2023-02-22T02:53:21;6.10;;;2.08;;
69386;SDS011;56575;48.942;8.404;2023-02-22T02:55:49;4.33;;;2.03;;
69386;SDS011;56575;48.942;8.404;2023-02-22T02:58:18;5.38;;;2.10;;
69386;SDS011;56575;48.942;8.404;2023-02-22T03:00:44;6.38;;;2.75;;
69386;SDS011;56575;48.942;8.404;2023-02-22T03:11:17;5.50;;;2.20;;
69386;SDS011;56575;48.942;8.404;2023-02-22T03:13:51;4.13;;;2.13;;
69386;SDS011;56575;48.942;8.404;2023-02-22T03:16:29;5.22;;;2.30;;
69386;SDS011;56575;48.942;8.404;2023-02-22T03:21:44;4.80;;;1.90;;
69386;SDS011;56575;48.942;8.404;2023-02-22T03:24:22;3.77;;;1.90;;
69386;SDS011;56575;48.942;8.404;2023-02-22T03:29:18;7.50;;;2.30;;
69386;SDS011;56575;48.942;8.404;2023-02-22T03:31:45;4.57;;;2.10;;
69386;SDS011;56575;48.942;8.404;2023-02-22T03:34:14;4.97;;;3.00;;
69386;SDS011;56575;48.942;8.404;2023-02-22T03:36:47;5.53;;;2.50;;
69386;SDS011;56575;48.942;8.404;2023-02-22T03:39:14;5.18;;;2.10;;
69386;SDS011;56575;48.942;8.404;2023-02-22T03:41:40;6.90;;;2.20;;
69386;SDS011;56575;48.942;8.404;2023-02-22T03:44:10;4.90;;;2.25;;
69386;SDS011;56575;48.942;8.404;2023-02-22T03:46:37;6.70;;;2.83;;
69386;SDS011;56575;48.942;8.404;2023-02-22T03:49:19;4.93;;;2.60;;
69386;SDS011;56575;48.942;8.404;2023-02-22T03:51:47;4.30;;;2.22;;
69386;SDS011;56575;48.942;8.404;2023-02-22T03:54:12;9.80;;;2.73;;
69386;SDS011;56575;48.942;8.404;2023-02-22T03:56:53;6.80;;;2.78;;
69386;SDS011;56575;48.942;8.404;2023-02-22T03:59:20;4.72;;;2.30;;
69386;SDS011;56575;48.942;8.404;2023-02-22T04:01:50;6.30;;;2.30;;
69386;SDS011;56575;48.942;8.404;2023-02-22T04:04:15;5.33;;;2.40;;
69386;SDS011;56575;48.942;8.404;2023-02-22T04:06:42;6.60;;;2.38;;
69386;SDS011;56575;48.942;8.404;2023-02-22T04:09:07;4.53;;;2.03;;
69386;SDS011;56575;48.942;8.404;2023-02-22T04:11:32;7.03;;;2.23;;
69386;SDS011;56575;48.942;8.404;2023-02-22T04:13:58;8.50;;;4.20;;
69386;SDS011;56575;48.942;8.404;2023-02-22T04:16:23;16.20;;;9.03;;
69386;SDS011;56575;48.942;8.404;2023-02-22T04:18:48;8.37;;;6.53;;
69386;SDS011;56575;48.942;8.404;2023-02-22T04:21:13;8.53;;;4.07;;
69386;SDS011;56575;48.942;8.404;2023-02-22T04:23:38;7.57;;;2.67;;
69386;SDS011;56575;48.942;8.404;2023-02-22T04:26:04;5.53;;;2.40;;
69386;SDS011;56575;48.942;8.404;2023-02-22T04:28:29;5.93;;;2.50;;
69386;SDS011;56575;48.942;8.404;2023-02-22T04:30:54;5.57;;;3.30;;
69386;SDS011;56575;48.942;8.404;2023-02-22T04:33:19;5.60;;;3.63;;
69386;SDS011;56575;48.942;8.404;2023-02-22T04:35:45;6.37;;;3.87;;
69386;SDS011;56575;48.942;8.404;2023-02-22T04:38:10;5.07;;;2.30;;
69386;SDS011;56575;48.942;8.404;2023-02-22T04:40:35;5.27;;;2.27;;
69386;SDS011;56575;48.942;8.404;2023-02-22T04:43:00;6.73;;;3.40;;
69386;SDS011;56575;48.942;8.404;2023-02-22T04:45:26;8.43;;;5.73;;
69386;SDS011;56575;48.942;8.404;2023-02-22T04:47:51;6.53;;;3.20;;
69386;SDS011;56575;48.942;8.404;2023-02-22T04:50:16;6.23;;;2.80;;
69386;SDS011;56575;48.942;8.404;2023-02-22T04:52:41;6.83;;;2.73;;
69386;SDS011;56575;48.942;8.404;2023-02-22T04:55:07;3.90;;;1.93;;
69386;SDS011;56575;48.942;8.404;2023-02-22T04:57:32;3.20;;;1.80;;
69386;SDS011;56575;48.942;8.404;2023-02-22T04:59:57;5.30;;;1.87;;
69386;SDS011;56575;48.942;8.404;2023-02-22T05:02:22;8.60;;;5.10;;
69386;SDS011;56575;48.942;8.404;2023-02-22T05:04:48;16.88;;;12.98;;
69386;SDS011;56575;48.942;8.404;2023-02-22T05:07:13;6.77;;;3.70;;
69386;SDS011;56575;48.942;8.404;2023-02-22T05:09:38;4.90;;;2.90;;
69386;SDS011;56575;48.942;8.404;2023-02-22T05:12:04;5.50;;;3.50;;
69386;SDS011;56575;48.942;8.404;2023-02-22T05:14:29;4.67;;;2.80;;
69386;SDS011;56575;48.942;8.404;2023-02-22T05:16:58;5.13;;;2.63;;
69386;SDS011;56575;48.942;8.404;2023-02-22T05:19:23;5.90;;;2.90;;
69386;SDS011;56575;48.942;8.404;2023-02-22T05:21:48;5.90;;;2.90;;
69386;SDS011;56575;48.942;8.404;2023-02-22T05:24:14;4.55;;;2.50;;
69386;SDS011;56575;48.942;8.404;2023-02-22T05:26:39;6.10;;;3.50;;
69386;SDS011;56575;48.942;8.404;2023-02-22T05:29:06;5.57;;;2.75;;
69386;SDS011;56575;48.942;8.404;2023-02-22T05:31:31;4.40;;;2.50;;
69386;SDS011;56575;48.942;8.404;2023-02-22T05:33:56;5.27;;;2.77;;
69386;SDS011;56575;48.942;8.404;2023-02-22T05:36:22;7.00;;;3.07;;
69386;SDS011;56575;48.942;8.404;2023-02-22T05:38:47;9.87;;;3.93;;
69386;SDS011;56575;48.942;8.404;2023-02-22T05:41:13;9.90;;;3.50;;
69386;SDS011;56575;48.942;8.404;2023-02-22T05:43:38;8.27;;;3.60;;
69386;SDS011;56575;48.942;8.404;2023-02-22T05:46:04;7.55;;;2.33;;
69386;SDS011;56575;48.942;8.404;2023-02-22T05:48:29;5.90;;;2.70;;
69386;SDS011;56575;48.942;8.404;2023-02-22T05:50:55;8.97;;;3.40;;
69386;SDS011;56575;48.942;8.404;2023-02-22T05:53:21;9.93;;;3.85;;
69386;SDS011;56575;48.942;8.404;2023-02-22T05:55:47;10.10;;;3.47;;
69386;SDS011;56575;48.942;8.404;2023-02-22T05:58:12;9.60;;;3.53;;
69386;SDS011;56575;48.942;8.404;2023-02-22T06:00:39;9.53;;;3.37;;
69386;SDS011;56575;48.942;8.404;2023-02-22T06:03:05;14.75;;;5.30;;
69386;SDS011;56575;48.942;8.404;2023-02-22T06:05:31;20.63;;;7.53;;
69386;SDS011;56575;48.942;8.404;2023-02-22T06:07:57;11.40;;;4.87;;
69386;SDS011;56575;48.942;8.404;2023-02-22T06:10:23;4.28;;;2.28;;
69386;SDS011;56575;48.942;8.404;2023-02-22T06:12:49;4.28;;;2.28;;
69386;SDS011;56575;48.942;8.404;2023-02-22T06:15:15;3.60;;;2.17;;
69386;SDS011;56575;48.942;8.404;2023-02-22T06:17:40;4.47;;;2.10;;
69386;SDS011;56575;48.942;8.404;2023-02-22T06:20:06;5.10;;;2.17;;
69386;SDS011;56575;48.942;8.404;2023-02-22T06:22:32;4.97;;;2.50;;
69386;SDS011;56575;48.942;8.404;2023-02-22T06:24:57;6.40;;;2.20;;
69386;SDS011;56575;48.942;8.404;2023-02-22T06:27:22;6.03;;;3.10;;
69386;SDS011;56575;48.942;8.404;2023-02-22T06:29:47;3.70;;;2.00;;
69386;SDS011;56575;48.942;8.404;2023-02-22T06:32:13;9.33;;;3.63;;
69386;SDS011;56575;48.942;8.404;2023-02-22T06:34:38;5.87;;;2.60;;
69386;SDS011;56575;48.942;8.404;2023-02-22T06:37:05;7.75;;;3.42;;
69386;SDS011;56575;48.942;8.404;2023-02-22T06:39:30;7.95;;;3.50;;
69386;SDS011;56575;48.942;8.404;2023-02-22T06:41:55;6.70;;;2.90;;
69386;SDS011;56575;48.942;8.404;2023-02-22T06:44:21;7.57;;;4.07;;
69386;SDS011;56575;48.942;8.404;2023-02-22T06:46:47;8.13;;;3.92;;
69386;SDS011;56575;48.942;8.404;2023-02-22T06:49:14;6.43;;;3.10;;
69386;SDS011;56575;48.942;8.404;2023-02-22T06:51:39;9.27;;;3.27;;
69386;SDS011;56575;48.942;8.404;2023-02-22T06:54:05;12.38;;;3.22;;
69386;SDS011;56575;48.942;8.404;2023-02-22T06:56:30;11.13;;;5.30;;
69386;SDS011;56575;48.942;8.404;2023-02-22T06:58:55;10.00;;;5.10;;
69386;SDS011;56575;48.942;8.404;2023-02-22T07:01:20;7.07;;;3.80;;
69386;SDS011;56575;48.942;8.404;2023-02-22T07:03:47;8.43;;;4.03;;
69386;SDS011;56575;48.942;8.404;2023-02-22T07:06:12;7.97;;;4.30;;
69386;SDS011;56575;48.942;8.404;2023-02-22T07:08:38;5.97;;;2.43;;
69386;SDS011;56575;48.942;8.404;2023-02-22T07:11:03;9.10;;;3.57;;
69386;SDS011;56575;48.942;8.404;2023-02-22T07:13:28;9.35;;;4.93;;
69386;SDS011;56575;48.942;8.404;2023-02-22T07:15:53;7.43;;;3.30;;
69386;SDS011;56575;48.942;8.404;2023-02-22T07:18:19;4.20;;;2.40;;
69386;SDS011;56575;48.942;8.404;2023-02-22T07:20:44;5.20;;;2.60;;
69386;SDS011;56575;48.942;8.404;2023-02-22T07:23:12;6.60;;;2.70;;
69386;SDS011;56575;48.942;8.404;2023-02-22T07:25:37;6.05;;;2.40;;
69386;SDS011;56575;48.942;8.404;2023-02-22T07:28:02;18.77;;;4.20;;
69386;SDS011;56575;48.942;8.404;2023-02-22T07:30:29;11.93;;;5.20;;
69386;SDS011;56575;48.942;8.404;2023-02-22T07:32:55;8.65;;;4.15;;
69386;SDS011;56575;48.942;8.404;2023-02-22T07:37:46;5.57;;;3.10;;
69386;SDS011;56575;48.942;8.404;2023-02-22T07:40:12;6.97;;;3.47;;
69386;SDS011;56575;48.942;8.404;2023-02-22T07:45:18;5.60;;;3.70;;
69386;SDS011;56575;48.942;8.404;2023-02-22T07:47:47;6.75;;;3.92;;
69386;SDS011;56575;48.942;8.404;2023-02-22T07:50:13;15.40;;;5.20;;
69386;SDS011;56575;48.942;8.404;2023-02-22T07:52:38;12.80;;;4.30;;
69386;SDS011;56575;48.942;8.404;2023-02-22T07:55:04;5.77;;;2.83;;
69386;SDS011;56575;48.942;8.404;2023-02-22T07:57:31;5.30;;;2.93;;
69386;SDS011;56575;48.942;8.404;2023-02-22T07:59:56;5.23;;;2.70;;
69386;SDS011;56575;48.942;8.404;2023-02-22T08:02:21;4.13;;;2.00;;
69386;SDS011;56575;48.942;8.404;2023-02-22T08:04:46;5.03;;;1.87;;
69386;SDS011;56575;48.942;8.404;2023-02-22T08:07:12;4.83;;;2.10;;
69386;SDS011;56575;48.942;8.404;2023-02-22T08:09:37;4.90;;;1.90;;
69386;SDS011;56575;48.942;8.404;2023-02-22T08:12:02;6.07;;;2.47;;
69386;SDS011;56575;48.942;8.404;2023-02-22T08:14:27;4.50;;;2.10;;
69386;SDS011;56575;48.942;8.404;2023-02-22T08:16:53;4.27;;;2.00;;
69386;SDS011;56575;48.942;8.404;2023-02-22T08:19:18;6.47;;;2.20;;
69386;SDS011;56575;48.942;8.404;2023-02-22T08:21:43;5.37;;;2.20;;
69386;SDS011;56575;48.942;8.404;2023-02-22T08:24:08;7.20;;;2.37;;
69386;SDS011;56575;48.942;8.404;2023-02-22T08:26:33;7.87;;;2.77;;
69386;SDS011;56575;48.942;8.404;2023-02-22T08:28:59;6.03;;;2.30;;
69386;SDS011;56575;48.942;8.404;2023-02-22T08:31:24;6.33;;;2.23;;
69386;SDS011;56575;48.942;8.404;2023-02-22T08:33:49;8.73;;;4.30;;
69386;SDS011;56575;48.942;8.404;2023-02-22T08:36:14;9.47;;;4.60;;
69386;SDS011;56575;48.942;8.404;2023-02-22T08:38:40;11.73;;;4.23;;
69386;SDS011;56575;48.942;8.404;2023-02-22T08:41:05;8.77;;;5.10;;
69386;SDS011;56575;48.942;8.404;2023-02-22T08:43:30;7.90;;;4.70;;
69386;SDS011;56575;48.942;8.404;2023-02-22T08:45:56;9.63;;;5.47;;
69386;SDS011;56575;48.942;8.404;2023-02-22T08:48:21;10.57;;;5.43;;
69386;SDS011;56575;48.942;8.404;2023-02-22T08:50:46;12.23;;;5.80;;
69386;SDS011;56575;48.942;8.404;2023-02-22T08:53:12;11.50;;;5.87;;
69386;SDS011;56575;48.942;8.404;2023-02-22T08:55:38;13.82;;;6.40;;
69386;SDS011;56575;48.942;8.404;2023-02-22T08:58:04;11.85;;;5.80;;
69386;SDS011;56575;48.942;8.404;2023-02-22T09:00:30;8.70;;;5.40;;
69386;SDS011;56575;48.942;8.404;2023-02-22T09:02:57;10.48;;;6.55;;
69386;SDS011;56575;48.942;8.404;2023-02-22T09:05:22;12.48;;;6.30;;
69386;SDS011;56575;48.942;8.404;2023-02-22T09:07:48;11.20;;;6.03;;
69386;SDS011;56575;48.942;8.404;2023-02-22T09:10:14;12.53;;;5.90;;
69386;SDS011;56575;48.942;8.404;2023-02-22T09:12:40;12.57;;;5.90;;
69386;SDS011;56575;48.942;8.404;2023-02-22T09:15:05;8.83;;;5.90;;
69386;SDS011;56575;48.942;8.404;2023-02-22T09:17:31;10.90;;;5.93;;
69386;SDS011;56575;48.942;8.404;2023-02-22T09:19:56;11.63;;;6.15;;
69386;SDS011;56575;48.942;8.404;2023-02-22T09:22:21;9.47;;;5.67;;
69386;SDS011;56575;48.942;8.404;2023-02-22T09:24:46;11.13;;;5.43;;
69386;SDS011;56575;48.942;8.404;2023-02-22T09:27:12;9.83;;;5.60;;
69386;SDS011;56575;48.942;8.404;2023-02-22T09:29:37;11.17;;;5.57;;
69386;SDS011;56575;48.942;8.404;2023-02-22T09:32:03;10.43;;;5.82;;
69386;SDS011;56575;48.942;8.404;2023-02-22T09:34:29;9.75;;;5.63;;
69386;SDS011;56575;48.942;8.404;2023-02-22T09:36:58;10.37;;;5.43;;
69386;SDS011;56575;48.942;8.404;2023-02-22T09:39:23;9.97;;;5.60;;
69386;SDS011;56575;48.942;8.404;2023-02-22T09:44:19;13.13;;;8.32;;
69386;SDS011;56575;48.942;8.404;2023-02-22T09:46:45;10.07;;;5.50;;
69386;SDS011;56575;48.942;8.404;2023-02-22T09:51:42;8.90;;;5.18;;
69386;SDS011;56575;48.942;8.404;2023-02-22T09:54:13;13.27;;;4.70;;
69386;SDS011;56575;48.942;8.404;2023-02-22T09:56:41;9.20;;;5.57;;
69386;SDS011;56575;48.942;8.404;2023-02-22T09:59:09;8.75;;;5.00;;
69386;SDS011;56575;48.942;8.404;2023-02-22T10:01:38;9.00;;;4.25;;
69386;SDS011;56575;48.942;8.404;2023-02-22T10:04:29;8.70;;;4.32;;
69386;SDS011;56575;48.942;8.404;2023-02-22T10:07:02;10.60;;;4.30;;
69386;SDS011;56575;48.942;8.404;2023-02-22T10:09:30;6.47;;;3.95;;
69386;SDS011;56575;48.942;8.404;2023-02-22T10:11:57;7.97;;;4.32;;
69386;SDS011;56575;48.942;8.404;2023-02-22T10:19:36;8.20;;;4.77;;
69386;SDS011;56575;48.942;8.404;2023-02-22T10:24:56;10.60;;;5.00;;
69386;SDS011;56575;48.942;8.404;2023-02-22T10:27:31;8.55;;;4.88;;
69386;SDS011;56575;48.942;8.404;2023-02-22T10:30:02;10.73;;;5.07;;
69386;SDS011;56575;48.942;8.404;2023-02-22T10:32:40;13.90;;;5.20;;
69386;SDS011;56575;48.942;8.404;2023-02-22T10:35:12;11.70;;;5.32;;
69386;SDS011;56575;48.942;8.404;2023-02-22T10:37:42;9.90;;;4.93;;
69386;SDS011;56575;48.942;8.404;2023-02-22T10:40:15;10.73;;;5.43;;
69386;SDS011;56575;48.942;8.404;2023-02-22T10:42:47;9.60;;;4.65;;
69386;SDS011;56575;48.942;8.404;2023-02-22T10:45:23;11.57;;;5.60;;
69386;SDS011;56575;48.942;8.404;2023-02-22T10:47:48;8.95;;;5.22;;
69386;SDS011;56575;48.942;8.404;2023-02-22T10:50:14;10.52;;;5.57;;
69386;SDS011;56575;48.942;8.404;2023-02-22T10:52:39;11.20;;;5.87;;
69386;SDS011;56575;48.942;8.404;2023-02-22T10:55:05;9.97;;;4.93;;
69386;SDS011;56575;48.942;8.404;2023-02-22T10:57:36;10.35;;;5.97;;
69386;SDS011;56575;48.942;8.404;2023-02-22T11:00:15;11.93;;;5.93;;
69386;SDS011;56575;48.942;8.404;2023-02-22T11:02:53;10.90;;;6.18;;
69386;SDS011;56575;48.942;8.404;2023-02-22T11:05:31;11.40;;;6.25;;
69386;SDS011;56575;48.942;8.404;2023-02-22T11:10:40;9.68;;;5.50;;
69386;SDS011;56575;48.942;8.404;2023-02-22T11:15:49;11.70;;;6.43;;
69386;SDS011;56575;48.942;8.404;2023-02-22T11:18:20;10.90;;;5.80;;
69386;SDS011;56575;48.942;8.404;2023-02-22T11:20:46;8.63;;;5.55;;
69386;SDS011;56575;48.942;8.404;2023-02-22T11:23:11;11.30;;;6.63;;
69386;SDS011;56575;48.942;8.404;2023-02-22T11:25:38;10.88;;;6.20;;
69386;SDS011;56575;48.942;8.404;2023-02-22T11:28:08;11.13;;;6.75;;
69386;SDS011;56575;48.942;8.404;2023-02-22T11:30:33;11.27;;;6.57;;
69386;SDS011;56575;48.942;8.404;2023-02-22T11:35:59;12.07;;;6.67;;
69386;SDS011;56575;48.942;8.404;2023-02-22T11:38:30;11.70;;;7.18;;
69386;SDS011;56575;48.942;8.404;2023-02-22T11:43:29;10.50;;;6.72;;
69386;SDS011;56575;48.942;8.404;2023-02-22T11:48:20;14.87;;;6.87;;
69386;SDS011;56575;48.942;8.404;2023-02-22T11:58:49;10.23;;;7.03;;
69386;SDS011;56575;48.942;8.404;2023-02-22T12:06:30;11.20;;;6.28;;
69386;SDS011;56575;48.942;8.404;2023-02-22T12:08:59;9.60;;;6.40;;
69386;SDS011;56575;48.942;8.404;2023-02-22T12:11:38;10.70;;;6.05;;
69386;SDS011;56575;48.942;8.404;2023-02-22T12:16:39;10.70;;;6.20;;
69386;SDS011;56575;48.942;8.404;2023-02-22T12:21:53;12.73;;;6.30;;
69386;SDS011;56575;48.942;8.404;2023-02-22T12:24:22;12.05;;;6.43;;
69386;SDS011;56575;48.942;8.404;2023-02-22T12:26:50;11.07;;;6.25;;
69386;SDS011;56575;48.942;8.404;2023-02-22T12:29:36;13.47;;;6.30;;
69386;SDS011;56575;48.942;8.404;2023-02-22T12:32:08;11.23;;;6.10;;
69386;SDS011;56575;48.942;8.404;2023-02-22T12:34:36;12.10;;;7.05;;
69386;SDS011;56575;48.942;8.404;2023-02-22T12:37:08;10.63;;;6.70;;
69386;SDS011;56575;48.942;8.404;2023-02-22T12:42:17;13.30;;;7.70;;
69386;SDS011;56575;48.942;8.404;2023-02-22T12:44:46;12.77;;;7.38;;
69386;SDS011;56575;48.942;8.404;2023-02-22T12:47:17;14.73;;;8.10;;
69386;SDS011;56575;48.942;8.404;2023-02-22T12:49:54;12.57;;;8.32;;
69386;SDS011;56575;48.942;8.404;2023-02-22T12:55:00;13.50;;;8.43;;
69386;SDS011;56575;48.942;8.404;2023-02-22T13:00:22;14.13;;;8.20;;
69386;SDS011;56575;48.942;8.404;2023-02-22T13:05:16;16.87;;;9.30;;
69386;SDS011;56575;48.942;8.404;2023-02-22T13:20:42;13.52;;;8.25;;
69386;SDS011;56575;48.942;8.404;2023-02-22T13:23:13;14.52;;;8.10;;
69386;SDS011;56575;48.942;8.404;2023-02-22T13:28:27;18.55;;;8.93;;
69386;SDS011;56575;48.942;8.404;2023-02-22T13:43:42;13.73;;;7.73;;
69386;SDS011;56575;48.942;8.404;2023-02-22T13:46:14;14.82;;;7.90;;
69386;SDS011;56575;48.942;8.404;2023-02-22T13:51:42;14.52;;;8.15;;
69386;SDS011;56575;48.942;8.404;2023-02-22T13:54:17;17.47;;;8.40;;
69386;SDS011;56575;48.942;8.404;2023-02-22T13:56:44;14.93;;;8.23;;
69386;SDS011;56575;48.942;8.404;2023-02-22T13:59:26;16.48;;;8.60;;
69386;SDS011;56575;48.942;8.404;2023-02-22T14:01:52;13.88;;;8.63;;
69386;SDS011;56575;48.942;8.404;2023-02-22T14:06:44;15.17;;;8.43;;
69386;SDS011;56575;48.942;8.404;2023-02-22T14:09:13;18.87;;;8.30;;
69386;SDS011;56575;48.942;8.404;2023-02-22T14:11:43;21.10;;;8.77;;
69386;SDS011;56575;48.942;8.404;2023-02-22T14:14:09;17.92;;;8.55;;
69386;SDS011;56575;48.942;8.404;2023-02-22T14:16:35;16.60;;;8.93;;
69386;SDS011;56575;48.942;8.404;2023-02-22T14:21:39;17.10;;;9.50;;
69386;SDS011;56575;48.942;8.404;2023-02-22T14:24:18;16.08;;;8.85;;
69386;SDS011;56575;48.942;8.404;2023-02-22T14:26:57;21.43;;;8.70;;
69386;SDS011;56575;48.942;8.404;2023-02-22T14:29:23;16.90;;;9.40;;
69386;SDS011;56575;48.942;8.404;2023-02-22T14:39:12;16.27;;;9.00;;
69386;SDS011;56575;48.942;8.404;2023-02-22T14:41:39;18.70;;;9.47;;
69386;SDS011;56575;48.942;8.404;2023-02-22T14:44:05;15.38;;;9.57;;
69386;SDS011;56575;48.942;8.404;2023-02-22T14:46:33;19.00;;;9.30;;
69386;SDS011;56575;48.942;8.404;2023-02-22T14:48:59;19.67;;;9.60;;
69386;SDS011;56575;48.942;8.404;2023-02-22T14:51:29;17.55;;;10.02;;
69386;SDS011;56575;48.942;8.404;2023-02-22T14:54:10;18.07;;;9.60;;
69386;SDS011;56575;48.942;8.404;2023-02-22T14:56:38;18.30;;;10.63;;
69386;SDS011;56575;48.942;8.404;2023-02-22T14:59:12;17.52;;;9.43;;
69386;SDS011;56575;48.942;8.404;2023-02-22T15:01:39;18.55;;;9.48;;
69386;SDS011;56575;48.942;8.404;2023-02-22T15:06:42;16.52;;;9.85;;
69386;SDS011;56575;48.942;8.404;2023-02-22T15:09:17;17.60;;;10.27;;
69386;SDS011;56575;48.942;8.404;2023-02-22T15:14:27;19.40;;;10.05;;
69386;SDS011;56575;48.942;8.404;2023-02-22T15:16:53;19.47;;;9.97;;
69386;SDS011;56575;48.942;8.404;2023-02-22T15:19:21;19.17;;;10.25;;
69386;SDS011;56575;48.942;8.404;2023-02-22T15:21:49;19.50;;;10.18;;
69386;SDS011;56575;48.942;8.404;2023-02-22T15:24:20;17.43;;;9.97;;
69386;SDS011;56575;48.942;8.404;2023-02-22T15:26:46;20.23;;;9.82;;
69386;SDS011;56575;48.942;8.404;2023-02-22T15:31:37;18.80;;;10.30;;
69386;SDS011;56575;48.942;8.404;2023-02-22T15:34:16;20.87;;;10.80;;
69386;SDS011;56575;48.942;8.404;2023-02-22T15:36:46;22.90;;;10.40;;
69386;SDS011;56575;48.942;8.404;2023-02-22T15:42:09;17.42;;;9.77;;
69386;SDS011;56575;48.942;8.404;2023-02-22T15:44:38;15.52;;;9.00;;
69386;SDS011;56575;48.942;8.404;2023-02-22T15:47:04;17.40;;;10.05;;
69386;SDS011;56575;48.942;8.404;2023-02-22T15:49:29;19.73;;;9.67;;
69386;SDS011;56575;48.942;8.404;2023-02-22T15:52:05;17.95;;;9.48;;
69386;SDS011;56575;48.942;8.404;2023-02-22T15:54:38;19.47;;;9.17;;
69386;SDS011;56575;48.942;8.404;2023-02-22T15:57:04;17.38;;;9.10;;
69386;SDS011;56575;48.942;8.404;2023-02-22T15:59:30;17.43;;;9.13;;
69386;SDS011;56575;48.942;8.404;2023-02-22T16:01:58;15.97;;;9.40;;
69386;SDS011;56575;48.942;8.404;2023-02-22T16:04:28;19.17;;;9.77;;
69386;SDS011;56575;48.942;8.404;2023-02-22T16:07:05;18.42;;;9.20;;
69386;SDS011;56575;48.942;8.404;2023-02-22T16:09:32;15.60;;;9.00;;
69386;SDS011;56575;48.942;8.404;2023-02-22T16:17:33;15.90;;;9.07;;
69386;SDS011;56575;48.942;8.404;2023-02-22T16:19:55;18.63;;;9.47;;
69386;SDS011;56575;48.942;8.404;2023-02-22T16:22:25;18.20;;;9.23;;
69386;SDS011;56575;48.942;8.404;2023-02-22T16:24:54;18.77;;;9.20;;
69386;SDS011;56575;48.942;8.404;2023-02-22T16:27:40;16.92;;;8.98;;
69386;SDS011;56575;48.942;8.404;2023-02-22T16:32:42;18.50;;;9.60;;
69386;SDS011;56575;48.942;8.404;2023-02-22T16:35:08;19.40;;;9.65;;
69386;SDS011;56575;48.942;8.404;2023-02-22T16:37:42;16.75;;;9.13;;
69386;SDS011;56575;48.942;8.404;2023-02-22T16:40:09;25.35;;;10.98;;
69386;SDS011;56575;48.942;8.404;2023-02-22T16:42:37;17.67;;;9.33;;
69386;SDS011;56575;48.942;8.404;2023-02-22T16:45:03;19.13;;;10.13;;
69386;SDS011;56575;48.942;8.404;2023-02-22T16:47:28;20.07;;;10.03;;
69386;SDS011;56575;48.942;8.404;2023-02-22T16:49:53;19.97;;;10.03;;
69386;SDS011;56575;48.942;8.404;2023-02-22T16:52:20;19.80;;;10.52;;
69386;SDS011;56575;48.942;8.404;2023-02-22T16:54:46;18.00;;;9.77;;
69386;SDS011;56575;48.942;8.404;2023-02-22T16:57:18;18.07;;;10.43;;
69386;SDS011;56575;48.942;8.404;2023-02-22T16:59:44;19.05;;;10.02;;
69386;SDS011;56575;48.942;8.404;2023-02-22T17:02:12;19.20;;;10.55;;
69386;SDS011;56575;48.942;8.404;2023-02-22T17:04:39;18.40;;;10.35;;
69386;SDS011;56575;48.942;8.404;2023-02-22T17:07:04;25.97;;;11.07;;
69386;SDS011;56575;48.942;8.404;2023-02-22T17:09:33;18.63;;;9.85;;
69386;SDS011;56575;48.942;8.404;2023-02-22T17:11:59;20.38;;;11.43;;
69386;SDS011;56575;48.942;8.404;2023-02-22T17:14:26;21.00;;;11.60;;